| time (UTC) | temp F | wind direction | speed MPH | gust MPH | rain 1hr in | rain 24hr in | rain mn in | humidity % | barometer mb |
| 20260906174523 | 68 | 33 | 0.0 | 0.0 | 0.13 | 0.54 | 0.54 | 89 | 1015.9 |
| 20260906173027 | 67 | 159 | 0.0 | 0.0 | 0.16 | 0.50 | 0.50 | 88 | 1016.7 |
| 20260906172019 | 68 | 10 | 0.0 | 0.0 | 0.16 | 0.47 | 0.47 | 88 | 1016.4 |
| 20260906171530 | 68 | 11 | 0.0 | 0.0 | 0.15 | 0.45 | 0.45 | 89 | 1016.4 |
| 20260906171019 | 67 | 118 | 0.0 | 0.0 | 0.14 | 0.43 | 0.43 | 88 | 1016.5 |
| 20260906170509 | 67 | 133 | 0.0 | 2.0 | 0.16 | 0.43 | 0.43 | 88 | 1016.5 |
| 20260906170017 | 67 | 147 | 0.0 | 2.0 | 0.18 | 0.43 | 0.43 | 87 | 1016.2 |
| 20260906165510 | 67 | 240 | 0.0 | 0.0 | 0.18 | 0.42 | 0.42 | 88 | 1015.8 |
| 20260906165013 | 67 | 173 | 0.0 | 0.0 | 0.19 | 0.42 | 0.42 | 88 | 1015.6 |
| 20260906164521 | 67 | 28 | 0.0 | 1.0 | 0.18 | 0.41 | 0.41 | 88 | 1015.4 |
| 20260906164016 | 67 | 26 | 0.0 | 4.0 | 0.15 | 0.38 | 0.38 | 87 | 1015.3 |
| 20260906163514 | 67 | 26 | 0.0 | 4.0 | 0.14 | 0.36 | 0.36 | 87 | 1015.5 |
| 20260906163030 | 67 | 34 | 1.0 | 2.0 | 0.12 | 0.34 | 0.34 | 87 | 1015.6 |
| 20260906162519 | 67 | 9 | 0.0 | 2.0 | 0.11 | 0.33 | 0.33 | 87 | 1015.7 |
| 20260906162014 | 67 | 352 | 0.0 | 2.0 | 0.09 | 0.31 | 0.31 | 87 | 1015.9 |
| 20260906161532 | 67 | 323 | 0.0 | 2.0 | 0.08 | 0.30 | 0.30 | 86 | 1015.9 |
| 20260906161020 | 67 | 323 | 0.0 | 2.0 | 0.07 | 0.29 | 0.29 | 85 | 1015.9 |
| 20260906160518 | 67 | 322 | 0.0 | 2.0 | 0.05 | 0.27 | 0.27 | 84 | 1015.7 |
| 20260906160037 | 67 | 316 | 0.0 | 2.0 | 0.03 | 0.25 | 0.25 | 83 | 1015.3 |
| 20260906155511 | 67 | 315 | 0.0 | 2.0 | 0.02 | 0.24 | 0.24 | 83 | 1015.3 |
| 20260906155015 | 67 | 11 | 0.0 | 2.0 | 0.01 | 0.23 | 0.23 | 84 | 1015.2 |
| 20260906154535 | 67 | 111 | 0.0 | 2.0 | 0.01 | 0.23 | 0.23 | 84 | 1015.1 |
| 20260906154015 | 67 | 171 | 0.0 | 2.0 | 0.01 | 0.23 | 0.23 | 83 | 1014.8 |
| 20260906153518 | 67 | 107 | 0.0 | 2.0 | 0.00 | 0.22 | 0.22 | 84 | 1014.5 |
| 20260906153026 | 67 | 161 | 0.0 | 0.0 | 0.00 | 0.22 | 0.22 | 84 | 1014.3 |
| 20260906152516 | 67 | 148 | 0.0 | 0.0 | 0.00 | 0.22 | 0.22 | 84 | 1014.1 |
| 20260906152016 | 67 | 188 | 0.0 | 0.0 | 0.00 | 0.22 | 0.22 | 84 | 1013.9 |
| 20260906151530 | 67 | 188 | 0.0 | 0.0 | 0.01 | 0.22 | 0.22 | 85 | 1013.7 |
| 20260906151017 | 67 | 182 | 0.0 | 0.0 | 0.01 | 0.22 | 0.22 | 85 | 1013.7 |
| 20260906150516 | 67 | 181 | 0.0 | 0.0 | 0.02 | 0.22 | 0.22 | 84 | 1013.7 |
| 20260906150031 | 67 | 181 | 0.0 | 0.0 | 0.02 | 0.22 | 0.22 | 84 | 1013.6 |
| 20260906145514 | 67 | 181 | 0.0 | 1.0 | 0.02 | 0.22 | 0.22 | 84 | 1013.6 |
| 20260906145019 | 67 | 148 | 0.0 | 1.0 | 0.03 | 0.22 | 0.22 | 82 | 1013.6 |
| 20260906144535 | 68 | 234 | 0.0 | 0.0 | 0.04 | 0.22 | 0.22 | 81 | 1013.7 |
| 20260906144016 | 67 | 196 | 0.0 | 0.0 | 0.05 | 0.22 | 0.22 | 81 | 1013.6 |
| 20260906143512 | 67 | 336 | 0.0 | 2.0 | 0.05 | 0.22 | 0.22 | 80 | 1013.5 |
| 20260906143027 | 68 | 9 | 0.0 | 3.0 | 0.05 | 0.22 | 0.22 | 80 | 1013.4 |
| 20260906142517 | 68 | 38 | 0.0 | 3.0 | 0.06 | 0.22 | 0.22 | 79 | 1013.4 |
| 20260906142016 | 67 | 23 | 0.0 | 2.0 | 0.07 | 0.22 | 0.22 | 80 | 1013.5 |
| 20260906141528 | 66 | 19 | 0.0 | 1.0 | 0.06 | 0.21 | 0.21 | 79 | 1013.6 |
| 20260906141015 | 67 | 294 | 0.0 | 5.0 | 0.07 | 0.21 | 0.21 | 77 | 1013.6 |
| 20260906140521 | 67 | 29 | 1.0 | 5.0 | 0.06 | 0.20 | 0.20 | 77 | 1013.7 |
| 20260906140040 | 67 | 12 | 2.0 | 5.0 | 0.07 | 0.20 | 0.20 | 78 | 1013.5 |
| 20260906135508 | 66 | 14 | 2.0 | 5.0 | 0.07 | 0.20 | 0.20 | 80 | 1013.7 |
| 20260906135007 | 65 | 36 | 0.0 | 3.0 | 0.10 | 0.19 | 0.19 | 83 | 1013.6 |
| 20260906134515 | 66 | 21 | 0.0 | 2.0 | 0.12 | 0.18 | 0.18 | 82 | 1013.9 |
| 20260906134010 | 66 | 32 | 0.0 | 4.0 | 0.12 | 0.17 | 0.17 | 82 | 1014.0 |
| 20260906133510 | 66 | 22 | 0.0 | 4.0 | 0.14 | 0.17 | 0.17 | 82 | 1014.2 |
| 20260906133022 | 66 | 21 | 0.0 | 2.0 | 0.15 | 0.17 | 0.17 | 84 | 1014.1 |
| 20260906132514 | 66 | 26 | 0.0 | 2.0 | 0.15 | 0.16 | 0.16 | 83 | 1014.2 |
| 20260906132014 | 66 | 33 | 0.0 | 1.0 | 0.15 | 0.15 | 0.15 | 82 | 1014.4 |
| 20260906131525 | 66 | 360 | 0.0 | 2.0 | 0.15 | 0.15 | 0.15 | 81 | 1014.7 |
| 20260906131015 | 66 | 11 | 0.0 | 2.0 | 0.14 | 0.14 | 0.14 | 80 | 1014.5 |
| 20260906130515 | 67 | 11 | 0.0 | 4.0 | 0.14 | 0.14 | 0.14 | 80 | 1014.1 |
| 20260906130040 | 67 | 9 | 1.0 | 4.0 | 0.13 | 0.13 | 0.13 | 83 | 1014.0 |
| 20260906125514 | 67 | 34 | 0.0 | 5.0 | 0.13 | 0.13 | 0.13 | 81 | 1013.7 |
| 20260906125020 | 68 | 15 | 0.0 | 5.0 | 0.09 | 0.09 | 0.09 | 78 | 1013.9 |
| 20260906124532 | 68 | 30 | 0.0 | 2.0 | 0.06 | 0.06 | 0.06 | 79 | 1014.4 |
| 20260906124008 | 69 | 338 | 1.0 | 2.0 | 0.05 | 0.05 | 0.05 | 79 | 1015.0 |
| 20260906123512 | 69 | 318 | 0.0 | 2.0 | 0.03 | 0.03 | 0.03 | 76 | 1015.2 |
| 20260906123017 | 69 | 132 | 0.0 | 2.0 | 0.02 | 0.02 | 0.02 | 69 | 1014.5 |
| 20260906122511 | 70 | 242 | 0.0 | 1.0 | 0.01 | 0.01 | 0.01 | 67 | 1013.7 |
| 20260906122011 | 71 | 15 | 0.0 | 0.0 | 0.00 | 0.00 | 0.00 | 64 | 1013.1 |
| 20260906121523 | 72 | 36 | 0.0 | 0.0 | 0.00 | 0.00 | 0.00 | 59 | 1012.9 |
| 20260906121015 | 73 | 144 | 0.0 | 0.0 | 0.00 | 0.00 | 0.00 | 46 | 1012.9 |
| 20260906120515 | 73 | 143 | 0.0 | 0.0 | 0.00 | 0.00 | 0.00 | 45 | 1012.8 |
| 20260906120028 | 73 | 140 | 0.0 | 0.0 | 0.00 | 0.00 | 0.00 | 45 | 1012.6 |
| 20260906115515 | 73 | 28 | 0.0 | 0.0 | 0.00 | 0.00 | 0.00 | 44 | 1012.4 |
| 20260906115015 | 73 | 28 | 0.0 | 0.0 | 0.00 | 0.00 | 0.00 | 44 | 1012.2 |
| 20260906114534 | 73 | 28 | 0.0 | 0.0 | 0.00 | 0.00 | 0.00 | 44 | 1012.2 |
| 20260906114018 | 73 | 28 | 0.0 | 0.0 | 0.00 | 0.00 | 0.00 | 45 | 1012.3 |
| 20260906113517 | 73 | 28 | 0.0 | 0.0 | 0.00 | 0.00 | 0.00 | 45 | 1012.3 |
| 20260906113022 | 73 | 30 | 0.0 | 0.0 | 0.00 | 0.00 | 0.00 | 44 | 1012.3 |
| 20260906112511 | 73 | 30 | 0.0 | 0.0 | 0.00 | 0.00 | 0.00 | 44 | 1012.3 |
| 20260906112015 | 73 | 30 | 0.0 | 0.0 | 0.00 | 0.00 | 0.00 | 44 | 1012.3 |
| 20260906111523 | 73 | 30 | 0.0 | 0.0 | 0.00 | 0.00 | 0.00 | 45 | 1012.4 |
| 20260906111015 | 72 | 30 | 0.0 | 0.0 | 0.00 | 0.00 | 0.00 | 46 | 1012.3 |
| 20260906110514 | 72 | 30 | 0.0 | 0.0 | 0.00 | 0.00 | 0.00 | 47 | 1012.5 |
| 20260906110026 | 72 | 30 | 0.0 | 0.0 | 0.00 | 0.00 | 0.00 | 45 | 1012.4 |
| 20260906105516 | 72 | 30 | 0.0 | 0.0 | 0.00 | 0.00 | 0.00 | 46 | 1012.5 |
| 20260906105014 | 72 | 30 | 0.0 | 0.0 | 0.00 | 0.00 | 0.00 | 47 | 1012.4 |
| 20260906104532 | 72 | 30 | 0.0 | 0.0 | 0.00 | 0.00 | 0.00 | 47 | 1012.4 |
| 20260906104015 | 73 | 30 | 0.0 | 0.0 | 0.00 | 0.00 | 0.00 | 47 | 1012.3 |
| 20260906103516 | 73 | 30 | 0.0 | 2.0 | 0.00 | 0.00 | 0.00 | 46 | 1012.4 |
| 20260906103030 | 73 | 30 | 0.0 | 2.0 | 0.00 | 0.00 | 0.00 | 46 | 1012.4 |
| 20260906102514 | 73 | 28 | 0.0 | 2.0 | 0.00 | 0.00 | 0.00 | 47 | 1012.2 |
| 20260906102019 | 72 | 349 | 0.0 | 0.0 | 0.00 | 0.00 | 0.00 | 48 | 1012.4 |
| 20260906101518 | 73 | 349 | 0.0 | 0.0 | 0.00 | 0.00 | 0.00 | 47 | 1012.5 |
| 20260906101014 | 73 | 349 | 0.0 | 0.0 | 0.00 | 0.00 | 0.00 | 47 | 1012.5 |
| 20260906100514 | 73 | 349 | 0.0 | 2.0 | 0.00 | 0.00 | 0.00 | 46 | 1012.3 |
| 20260906100022 | 73 | 349 | 0.0 | 2.0 | 0.00 | 0.00 | 0.00 | 46 | 1012.3 |
| 20260906095515 | 73 | 341 | 0.0 | 0.0 | 0.00 | 0.00 | 0.00 | 46 | 1012.4 |
| 20260906095015 | 73 | 341 | 0.0 | 0.0 | 0.00 | 0.00 | 0.00 | 44 | 1012.5 |
| 20260906094533 | 73 | 341 | 0.0 | 0.0 | 0.00 | 0.00 | 0.00 | 44 | 1012.6 |
| 20260906094016 | 73 | 341 | 0.0 | 0.0 | 0.00 | 0.00 | 0.00 | 44 | 1012.6 |
| 20260906093516 | 72 | 341 | 0.0 | 0.0 | 0.00 | 0.00 | 0.00 | 44 | 1012.5 |
| 20260906093032 | 72 | 341 | 0.0 | 0.0 | 0.00 | 0.00 | 0.00 | 45 | 1012.4 |
| 20260906092514 | 72 | 341 | 0.0 | 0.0 | 0.00 | 0.00 | 0.00 | 46 | 1012.4 |
| 20260906092018 | 72 | 341 | 0.0 | 0.0 | 0.00 | 0.00 | 0.00 | 45 | 1012.4 |
| 20260906091534 | 72 | 341 | 0.0 | 0.0 | 0.00 | 0.00 | 0.00 | 44 | 1012.4 |
| 20260906091019 | 72 | 341 | 0.0 | 0.0 | 0.00 | 0.00 | 0.00 | 44 | 1012.4 |
| 20260906090514 | 72 | 341 | 0.0 | 0.0 | 0.00 | 0.00 | 0.00 | 45 | 1012.5 |
| 20260906090024 | 72 | 341 | 0.0 | 0.0 | 0.00 | 0.00 | 0.00 | 43 | 1012.5 |
| 20260906085513 | 72 | 341 | 0.0 | 0.0 | 0.00 | 0.00 | 0.00 | 43 | 1012.5 |
| 20260906085021 | 72 | 341 | 0.0 | 0.0 | 0.00 | 0.00 | 0.00 | 43 | 1012.5 |
| 20260906084528 | 72 | 341 | 0.0 | 0.0 | 0.00 | 0.00 | 0.00 | 44 | 1012.6 |
| 20260906084015 | 72 | 341 | 0.0 | 0.0 | 0.00 | 0.00 | 0.00 | 44 | 1012.6 |
| 20260906083518 | 72 | 341 | 0.0 | 0.0 | 0.00 | 0.00 | 0.00 | 44 | 1012.6 |
| 20260906083032 | 71 | 341 | 0.0 | 0.0 | 0.00 | 0.00 | 0.00 | 45 | 1012.6 |
| 20260906082514 | 71 | 341 | 0.0 | 0.0 | 0.00 | 0.00 | 0.00 | 44 | 1012.7 |
| 20260906082019 | 71 | 341 | 0.0 | 0.0 | 0.00 | 0.00 | 0.00 | 45 | 1012.7 |
| 20260906081536 | 71 | 341 | 0.0 | 0.0 | 0.00 | 0.00 | 0.00 | 45 | 1012.8 |
| 20260906081018 | 71 | 341 | 0.0 | 0.0 | 0.00 | 0.00 | 0.00 | 45 | 1012.7 |
| 20260906080519 | 71 | 341 | 0.0 | 0.0 | 0.00 | 0.00 | 0.00 | 45 | 1012.8 |
| 20260906080035 | 71 | 341 | 0.0 | 0.0 | 0.00 | 0.00 | 0.00 | 46 | 1012.8 |
| 20260906075517 | 72 | 341 | 0.0 | 0.0 | 0.00 | 0.00 | 0.00 | 45 | 1012.7 |
| 20260906075012 | 71 | 341 | 0.0 | 0.0 | 0.00 | 0.00 | 0.00 | 46 | 1012.7 |
| 20260906074526 | 71 | 341 | 0.0 | 0.0 | 0.00 | 0.00 | 0.00 | 46 | 1012.8 |
| 20260906074014 | 71 | 341 | 0.0 | 0.0 | 0.00 | 0.00 | 0.00 | 46 | 1012.8 |
| 20260906073518 | 72 | 341 | 0.0 | 0.0 | 0.00 | 0.00 | 0.00 | 46 | 1012.8 |
| 20260906073027 | 72 | 341 | 0.0 | 0.0 | 0.00 | 0.00 | 0.00 | 45 | 1012.8 |
| 20260906072517 | 72 | 341 | 0.0 | 0.0 | 0.00 | 0.00 | 0.00 | 44 | 1012.8 |
| 20260906072015 | 72 | 341 | 0.0 | 0.0 | 0.00 | 0.00 | 0.00 | 44 | 1012.7 |
| 20260906071530 | 71 | 341 | 0.0 | 0.0 | 0.00 | 0.00 | 0.00 | 45 | 1012.7 |
| 20260906071018 | 71 | 341 | 0.0 | 0.0 | 0.00 | 0.00 | 0.00 | 45 | 1012.6 |
| 20260906070518 | 71 | 341 | 0.0 | 0.0 | 0.00 | 0.00 | 0.00 | 44 | 1012.6 |
| 20260906070034 | 72 | 341 | 0.0 | 0.0 | 0.00 | 0.00 | 0.00 | 43 | 1012.7 |
| 20260906065517 | 72 | 341 | 0.0 | 0.0 | 0.00 | 0.00 | 0.00 | 42 | 1012.6 |
| 20260906065016 | 72 | 341 | 0.0 | 0.0 | 0.00 | 0.00 | 0.00 | 42 | 1012.7 |
| 20260906064536 | 72 | 341 | 0.0 | 0.0 | 0.00 | 0.00 | 0.00 | 42 | 1012.7 |
| 20260906064021 | 72 | 341 | 0.0 | 0.0 | 0.00 | 0.00 | 0.00 | 43 | 1012.7 |
| 20260906063514 | 72 | 341 | 0.0 | 0.0 | 0.00 | 0.00 | 0.00 | 43 | 1012.7 |
| 20260906063028 | 71 | 341 | 0.0 | 0.0 | 0.00 | 0.00 | 0.00 | 44 | 1012.8 |
| 20260906062515 | 71 | 341 | 0.0 | 0.0 | 0.00 | 0.00 | 0.00 | 45 | 1012.8 |
| 20260906062016 | 71 | 341 | 0.0 | 0.0 | 0.00 | 0.00 | 0.00 | 45 | 1012.9 |
| 20260906061530 | 71 | 341 | 0.0 | 0.0 | 0.00 | 0.00 | 0.00 | 44 | 1012.9 |
| 20260906061019 | 71 | 341 | 0.0 | 0.0 | 0.00 | 0.00 | 0.00 | 44 | 1012.9 |
| 20260906060519 | 71 | 341 | 0.0 | 0.0 | 0.00 | 0.00 | 0.00 | 45 | 1012.9 |
| 20260906060031 | 72 | 341 | 0.0 | 0.0 | 0.00 | 0.00 | 0.00 | 45 | 1012.9 |
| 20260906055517 | 71 | 341 | 0.0 | 0.0 | 0.00 | 0.00 | 0.00 | 45 | 1012.9 |
| 20260906055019 | 71 | 338 | 0.0 | 0.0 | 0.00 | 0.00 | 0.00 | 45 | 1012.9 |
| 20260906054534 | 71 | 338 | 0.0 | 0.0 | 0.00 | 0.00 | 0.00 | 45 | 1013.0 |
| 20260906054019 | 72 | 338 | 0.0 | 0.0 | 0.00 | 0.00 | 0.00 | 45 | 1013.1 |
| 20260906053519 | 71 | 336 | 0.0 | 0.0 | 0.00 | 0.00 | 0.00 | 46 | 1013.2 |
| 20260906053037 | 71 | 336 | 0.0 | 0.0 | 0.00 | 0.00 | 0.00 | 46 | 1013.2 |
| 20260906052515 | 72 | 336 | 0.0 | 0.0 | 0.00 | 0.00 | 0.00 | 45 | 1013.2 |
| 20260906052016 | 72 | 336 | 0.0 | 0.0 | 0.00 | 0.00 | 0.00 | 44 | 1013.2 |
| 20260906051534 | 72 | 336 | 0.0 | 0.0 | 0.00 | 0.00 | 0.00 | 44 | 1013.2 |
| 20260906051016 | 72 | 336 | 0.0 | 0.0 | 0.00 | 0.00 | 0.00 | 43 | 1013.2 |
| 20260906050516 | 72 | 336 | 0.0 | 0.0 | 0.00 | 0.00 | 0.00 | 44 | 1013.2 |
| 20260906050052 | 73 | 331 | 0.0 | 0.0 | 0.00 | 0.00 | 0.00 | 45 | 1013.2 |
| 20260906045517 | 73 | 331 | 0.0 | 0.0 | 0.00 | 0.00 | 0.00 | 45 | 1013.1 |
| 20260906045021 | 73 | 331 | 0.0 | 1.0 | 0.00 | 0.00 | 0.00 | 45 | 1013.2 |
| 20260906044533 | 73 | 331 | 0.0 | 1.0 | 0.00 | 0.00 | 0.00 | 45 | 1013.2 |
| 20260906044018 | 73 | 314 | 0.0 | 0.0 | 0.00 | 0.00 | 0.00 | 47 | 1013.2 |
| 20260906043515 | 73 | 309 | 0.0 | 0.0 | 0.00 | 0.00 | 0.00 | 47 | 1013.2 |
| 20260906043032 | 73 | 309 | 0.0 | 0.0 | 0.00 | 0.00 | 0.00 | 50 | 1013.2 |
| 20260906042518 | 72 | 309 | 0.0 | 0.0 | 0.00 | 0.00 | 0.00 | 50 | 1013.2 |
| 20260906042019 | 72 | 300 | 0.0 | 0.0 | 0.00 | 0.00 | 0.00 | 53 | 1013.2 |
| 20260906041533 | 73 | 302 | 0.0 | 0.0 | 0.00 | 0.00 | 0.00 | 58 | 1013.1 |
| 20260906041017 | 73 | 221 | 0.0 | 0.0 | 0.00 | 0.00 | 0.00 | 60 | 1013.1 |
| 20260906040516 | 74 | 215 | 0.0 | 0.0 | 0.00 | 0.00 | 0.00 | 69 | 1013.1 |
| 20260906040036 | 73 | 215 | 0.0 | 0.0 | 0.00 | 0.00 | 0.00 | 70 | 1013.1 |
| 20260906035516 | 73 | 215 | 0.0 | 0.0 | 0.00 | 0.00 | 0.00 | 71 | 1013.1 |
| 20260906035018 | 73 | 200 | 0.0 | 0.0 | 0.00 | 0.00 | 0.00 | 71 | 1013.1 |
| 20260906034540 | 73 | 180 | 0.0 | 2.0 | 0.00 | 0.00 | 0.00 | 71 | 1013.0 |
| 20260906034017 | 73 | 179 | 0.0 | 2.0 | 0.00 | 0.00 | 0.00 | 71 | 1013.0 |
| 20260906033514 | 73 | 169 | 0.0 | 1.0 | 0.00 | 0.00 | 0.00 | 71 | 1012.9 |
| 20260906033032 | 73 | 146 | 0.0 | 0.0 | 0.00 | 0.00 | 0.00 | 71 | 1012.9 |
| 20260906032519 | 74 | 144 | 0.0 | 0.0 | 0.00 | 0.00 | 0.00 | 70 | 1012.8 |
| 20260906032019 | 74 | 144 | 0.0 | 0.0 | 0.00 | 0.00 | 0.00 | 70 | 1012.8 |
| 20260906031540 | 74 | 114 | 0.0 | 0.0 | 0.00 | 0.00 | 0.00 | 70 | 1012.7 |
| 20260906031019 | 74 | 111 | 0.0 | 0.0 | 0.00 | 0.00 | 0.00 | 70 | 1012.7 |
| 20260906030521 | 74 | 111 | 0.0 | 0.0 | 0.00 | 0.00 | 0.00 | 69 | 1012.7 |
| 20260906030032 | 74 | 111 | 0.0 | 0.0 | 0.00 | 0.00 | 0.00 | 69 | 1012.6 |
| 20260906025515 | 74 | 129 | 0.0 | 0.0 | 0.00 | 0.00 | 0.00 | 71 | 1012.5 |
| 20260906025018 | 73 | 129 | 0.0 | 2.0 | 0.00 | 0.00 | 0.00 | 70 | 1012.6 |
| 20260906024513 | 73 | 120 | 0.0 | 2.0 | 0.00 | 0.00 | 0.00 | 70 | 1012.7 |
| 20260906024007 | 73 | 85 | 0.0 | 2.0 | 0.00 | 0.00 | 0.00 | 71 | 1012.6 |
| 20260906023507 | 73 | 130 | 0.0 | 2.0 | 0.00 | 0.00 | 0.00 | 70 | 1012.6 |
| 20260906023011 | 73 | 300 | 0.0 | 2.0 | 0.00 | 0.00 | 0.00 | 70 | 1012.6 |
| 20260906022512 | 74 | 259 | 0.0 | 2.0 | 0.00 | 0.00 | 0.00 | 70 | 1012.7 |
| 20260906022015 | 74 | 139 | 0.0 | 3.0 | 0.00 | 0.00 | 0.00 | 69 | 1012.7 |
| 20260906021525 | 74 | 32 | 0.0 | 3.0 | 0.00 | 0.00 | 0.00 | 68 | 1012.7 |
| 20260906021015 | 74 | 341 | 0.0 | 2.0 | 0.00 | 0.00 | 0.00 | 68 | 1012.7 |
| 20260906020516 | 74 | 344 | 0.0 | 2.0 | 0.00 | 0.00 | 0.00 | 68 | 1012.7 |
| 20260906020030 | 74 | 110 | 0.0 | 2.0 | 0.00 | 0.00 | 0.00 | 68 | 1012.8 |
| 20260906015514 | 75 | 275 | 0.0 | 2.0 | 0.00 | 0.00 | 0.00 | 68 | 1012.7 |
| 20260906015014 | 75 | 13 | 0.0 | 2.0 | 0.00 | 0.00 | 0.00 | 68 | 1012.8 |
| 20260906014534 | 75 | 148 | 0.0 | 3.0 | 0.00 | 0.00 | 0.00 | 66 | 1012.8 |
| 20260906014020 | 76 | 327 | 0.0 | 4.0 | 0.00 | 0.00 | 0.00 | 65 | 1012.8 |
| 20260906013519 | 76 | 25 | 0.0 | 4.0 | 0.00 | 0.00 | 0.00 | 64 | 1012.8 |
| 20260906013012 | 76 | 317 | 0.0 | 3.0 | 0.00 | 0.00 | 0.00 | 63 | 1012.9 |
| 20260906012510 | 76 | 333 | 0.0 | 3.0 | 0.00 | 0.00 | 0.00 | 66 | 1012.9 |
| 20260906012013 | 76 | 341 | 0.0 | 5.0 | 0.00 | 0.00 | 0.00 | 66 | 1012.9 |
| 20260906011520 | 75 | 90 | 1.0 | 4.0 | 0.00 | 0.00 | 0.00 | 67 | 1012.9 |
| 20260906011013 | 75 | 350 | 1.0 | 3.0 | 0.00 | 0.00 | 0.00 | 69 | 1012.9 |
| 20260906010519 | 75 | 134 | 0.0 | 3.0 | 0.00 | 0.00 | 0.00 | 69 | 1012.8 |
| 20260906010026 | 76 | 330 | 0.0 | 3.0 | 0.00 | 0.00 | 0.00 | 69 | 1012.8 |
| 20260906005515 | 76 | 261 | 0.0 | 4.0 | 0.00 | 0.00 | 0.00 | 69 | 1012.8 |
| 20260906005016 | 77 | 313 | 1.0 | 4.0 | 0.00 | 0.00 | 0.00 | 66 | 1012.8 |
| 20260906004533 | 78 | 347 | 0.0 | 3.0 | 0.00 | 0.00 | 0.00 | 63 | 1012.8 |
| 20260906004016 | 77 | 208 | 1.0 | 3.0 | 0.00 | 0.00 | 0.00 | 59 | 1012.7 |
| 20260906003524 | 78 | 328 | 1.0 | 3.0 | 0.00 | 0.00 | 0.00 | 56 | 1012.7 |
| 20260906003034 | 78 | 349 | 1.0 | 3.0 | 0.00 | 0.00 | 0.00 | 56 | 1012.7 |
| 20260906002523 | 78 | 5 | 1.0 | 3.0 | 0.00 | 0.00 | 0.00 | 57 | 1012.6 |
| 20260906002010 | 77 | 318 | 1.0 | 4.0 | 0.00 | 0.00 | 0.00 | 59 | 1012.6 |
| 20260906001517 | 78 | 360 | 0.0 | 4.0 | 0.00 | 0.00 | 0.00 | 58 | 1012.7 |
| 20260906001011 | 78 | 348 | 1.0 | 4.0 | 0.00 | 0.00 | 0.00 | 56 | 1012.7 |
| 20260906000513 | 78 | 5 | 1.0 | 3.0 | 0.00 | 0.00 | 0.00 | 56 | 1012.9 |
| 20260906000030 | 78 | 300 | 1.0 | 3.0 | 0.00 | 0.00 | 0.00 | 55 | 1012.8 |
| 20260905235515 | 78 | 5 | 0.0 | 3.0 | 0.00 | 0.00 | 0.00 | 59 | 1012.7 |
| 20260905235015 | 78 | 346 | 1.0 | 4.0 | 0.00 | 0.00 | 0.00 | 60 | 1012.8 |
| 20260905234527 | 78 | 82 | 1.0 | 4.0 | 0.00 | 0.00 | 0.00 | 61 | 1012.9 |
| 20260905234014 | 78 | 83 | 1.0 | 5.0 | 0.00 | 0.00 | 0.00 | 60 | 1012.8 |
| 20260905233508 | 77 | 240 | 2.0 | 5.0 | 0.00 | 0.00 | 0.00 | 62 | 1012.8 |
| 20260905233012 | 76 | 255 | 1.0 | 3.0 | 0.00 | 0.00 | 0.00 | 63 | 1012.8 |
| 20260905232510 | 76 | 123 | 1.0 | 4.0 | 0.00 | 0.00 | 0.00 | 63 | 1012.8 |
| 20260905232008 | 76 | 161 | 1.0 | 6.0 | 0.00 | 0.00 | 0.00 | 64 | 1012.8 |
| 20260905231514 | 77 | 15 | 1.0 | 6.0 | 0.00 | 0.00 | 0.00 | 62 | 1012.8 |
| 20260905231013 | 78 | 13 | 0.0 | 5.0 | 0.00 | 0.00 | 0.00 | 65 | 1012.9 |
| 20260905230509 | 79 | 321 | 1.0 | 5.0 | 0.00 | 0.00 | 0.00 | 64 | 1012.9 |
| 20260905230018 | 78 | 349 | 1.0 | 5.0 | 0.00 | 0.00 | 0.00 | 65 | 1013.0 |
| 20260905225513 | 77 | 321 | 1.0 | 3.0 | 0.00 | 0.00 | 0.00 | 67 | 1012.9 |
| 20260905225014 | 78 | 321 | 1.0 | 3.0 | 0.00 | 0.00 | 0.00 | 65 | 1013.0 |
| 20260905224526 | 78 | 19 | 1.0 | 3.0 | 0.00 | 0.00 | 0.00 | 65 | 1013.0 |
| 20260905224015 | 78 | 66 | 1.0 | 3.0 | 0.00 | 0.00 | 0.00 | 64 | 1013.1 |
| 20260905223519 | 79 | 319 | 0.0 | 3.0 | 0.00 | 0.00 | 0.00 | 62 | 1013.0 |
| 20260905223030 | 79 | 130 | 0.0 | 3.0 | 0.00 | 0.00 | 0.00 | 64 | 1013.1 |
| 20260905222506 | 79 | 336 | 0.0 | 3.0 | 0.00 | 0.00 | 0.00 | 63 | 1013.2 |
| 20260905222009 | 79 | 344 | 0.0 | 4.0 | 0.00 | 0.00 | 0.00 | 65 | 1013.2 |
| 20260905221509 | 78 | 67 | 1.0 | 4.0 | 0.00 | 0.00 | 0.00 | 63 | 1013.3 |
| 20260905221008 | 79 | 296 | 1.0 | 3.0 | 0.00 | 0.00 | 0.00 | 65 | 1013.3 |
| 20260905220512 | 78 | 338 | 0.0 | 3.0 | 0.00 | 0.00 | 0.00 | 63 | 1013.4 |
| 20260905220017 | 79 | 338 | 0.0 | 3.0 | 0.00 | 0.00 | 0.00 | 63 | 1013.3 |
| 20260905215511 | 78 | 107 | 1.0 | 3.0 | 0.00 | 0.00 | 0.00 | 64 | 1013.4 |
| 20260905215012 | 80 | 55 | 0.0 | 3.0 | 0.00 | 0.00 | 0.00 | 61 | 1013.3 |
| 20260905214524 | 79 | 342 | 1.0 | 3.0 | 0.00 | 0.00 | 0.00 | 61 | 1013.4 |
| 20260905214016 | 79 | 328 | 1.0 | 3.0 | 0.00 | 0.00 | 0.00 | 60 | 1013.4 |
| 20260905213516 | 81 | 51 | 1.0 | 3.0 | 0.00 | 0.00 | 0.00 | 59 | 1013.4 |
| 20260905213030 | 79 | 311 | 1.0 | 3.0 | 0.00 | 0.00 | 0.00 | 60 | 1013.5 |
| 20260905212516 | 80 | 22 | 1.0 | 7.0 | 0.00 | 0.00 | 0.00 | 59 | 1013.5 |
| 20260905212017 | 79 | 311 | 1.0 | 7.0 | 0.00 | 0.00 | 0.00 | 60 | 1013.6 |
| 20260905211530 | 79 | 53 | 0.0 | 3.0 | 0.00 | 0.00 | 0.00 | 59 | 1013.8 |
| 20260905211008 | 81 | 342 | 0.0 | 2.0 | 0.00 | 0.00 | 0.00 | 56 | 1013.9 |
| 20260905210511 | 79 | 306 | 0.0 | 2.0 | 0.00 | 0.00 | 0.00 | 60 | 1013.9 |
| 20260905210014 | 79 | 163 | 0.0 | 3.0 | 0.00 | 0.00 | 0.00 | 60 | 1013.9 |
| 20260905205511 | 80 | 341 | 0.0 | 3.0 | 0.00 | 0.00 | 0.00 | 62 | 1013.9 |
| 20260905205012 | 79 | 198 | 1.0 | 2.0 | 0.00 | 0.00 | 0.00 | 62 | 1014.1 |
| 20260905204520 | 78 | 343 | 0.0 | 3.0 | 0.00 | 0.00 | 0.00 | 63 | 1014.1 |
| 20260905204011 | 77 | 332 | 1.0 | 3.0 | 0.00 | 0.00 | 0.00 | 64 | 1014.2 |
| 20260905203513 | 77 | 352 | 1.0 | 3.0 | 0.00 | 0.00 | 0.00 | 65 | 1014.3 |
| 20260905203024 | 77 | 301 | 0.0 | 3.0 | 0.00 | 0.00 | 0.00 | 66 | 1014.2 |
| 20260905202514 | 80 | 84 | 0.0 | 4.0 | 0.00 | 0.00 | 0.00 | 61 | 1014.3 |
| 20260905202017 | 78 | 352 | 1.0 | 4.0 | 0.00 | 0.00 | 0.00 | 64 | 1014.2 |
| 20260905201536 | 78 | 334 | 1.0 | 3.0 | 0.00 | 0.00 | 0.00 | 65 | 1014.3 |
| 20260905201018 | 77 | 67 | 0.0 | 3.0 | 0.00 | 0.00 | 0.00 | 64 | 1014.3 |
| 20260905200521 | 76 | 334 | 1.0 | 4.0 | 0.00 | 0.00 | 0.00 | 66 | 1014.3 |
| 20260905200041 | 78 | 16 | 1.0 | 4.0 | 0.00 | 0.00 | 0.00 | 63 | 1014.3 |
| 20260905195517 | 77 | 309 | 1.0 | 3.0 | 0.00 | 0.00 | 0.00 | 65 | 1014.4 |
| 20260905195019 | 78 | 9 | 0.0 | 4.0 | 0.00 | 0.00 | 0.00 | 65 | 1014.4 |
| 20260905194532 | 76 | 351 | 1.0 | 4.0 | 0.00 | 0.00 | 0.00 | 65 | 1014.5 |
| 20260905194016 | 77 | 73 | 1.0 | 3.0 | 0.00 | 0.00 | 0.00 | 64 | 1014.5 |
| 20260905193519 | 76 | 284 | 1.0 | 2.0 | 0.00 | 0.00 | 0.00 | 65 | 1014.4 |
| 20260905193027 | 76 | 136 | 0.0 | 3.0 | 0.00 | 0.00 | 0.00 | 66 | 1014.4 |
| 20260905192514 | 78 | 302 | 1.0 | 3.0 | 0.00 | 0.00 | 0.00 | 64 | 1014.4 |
| 20260905192016 | 78 | 5 | 0.0 | 2.0 | 0.00 | 0.00 | 0.00 | 66 | 1014.5 |
| 20260905191528 | 76 | 302 | 0.0 | 3.0 | 0.00 | 0.00 | 0.00 | 65 | 1014.6 |
| 20260905191014 | 77 | 325 | 1.0 | 4.0 | 0.00 | 0.00 | 0.00 | 65 | 1014.6 |
| 20260905190517 | 77 | 331 | 1.0 | 4.0 | 0.00 | 0.00 | 0.00 | 67 | 1014.7 |
| 20260905190031 | 75 | 322 | 1.0 | 4.0 | 0.00 | 0.00 | 0.00 | 69 | 1014.8 |
| 20260905185518 | 77 | 140 | 0.0 | 3.0 | 0.00 | 0.00 | 0.00 | 66 | 1014.9 |
| 20260905185019 | 76 | 352 | 0.0 | 3.0 | 0.00 | 0.00 | 0.00 | 67 | 1015.0 |
| 20260905184538 | 76 | 77 | 0.0 | 3.0 | 0.00 | 0.00 | 0.00 | 67 | 1015.1 |
| 20260905184017 | 76 | 9 | 0.0 | 3.0 | 0.00 | 0.00 | 0.00 | 67 | 1015.1 |
| 20260905183522 | 76 | 317 | 0.0 | 3.0 | 0.00 | 0.00 | 0.00 | 66 | 1015.1 |
| 20260905183032 | 77 | 340 | 0.0 | 2.0 | 0.00 | 0.00 | 0.00 | 66 | 1015.1 |
| 20260905182518 | 76 | 324 | 0.0 | 2.0 | 0.00 | 0.00 | 0.00 | 68 | 1015.2 |
| 20260905182014 | 76 | 331 | 0.0 | 2.0 | 0.00 | 0.00 | 0.00 | 68 | 1015.3 |
| 20260905181527 | 75 | 20 | 0.0 | 4.0 | 0.00 | 0.00 | 0.00 | 70 | 1015.3 |
| 20260905181015 | 74 | 276 | 1.0 | 4.0 | 0.00 | 0.00 | 0.00 | 72 | 1015.3 |
| 20260905180514 | 74 | 22 | 0.0 | 4.0 | 0.00 | 0.00 | 0.00 | 71 | 1015.4 |
| 20260905180029 | 74 | 280 | 0.0 | 4.0 | 0.00 | 0.00 | 0.00 | 72 | 1015.3 |
| 20260905175516 | 73 | 336 | 1.0 | 3.0 | 0.00 | 0.00 | 0.00 | 72 | 1015.3 |
| 20260905175016 | 74 | 269 | 0.0 | 3.0 | 0.00 | 0.00 | 0.00 | 71 | 1015.2 |